createdAt,value
2023-05-01T00:00:33.559Z,7.39
2023-05-01T00:01:55.357Z,8.75
2023-05-01T00:03:18.194Z,9.39
2023-05-01T00:04:40.056Z,9.27
2023-05-01T00:06:01.936Z,8.89
2023-05-01T00:07:23.313Z,8.49
2023-05-01T00:08:45.176Z,8.12
2023-05-01T00:10:07.197Z,7.82
2023-05-01T00:11:28.713Z,7.58
2023-05-01T00:12:53.168Z,7.37
2023-05-01T00:14:14.952Z,7.18
2023-05-01T00:15:36.585Z,7.03
2023-05-01T00:16:58.798Z,6.89
2023-05-01T00:18:20.496Z,6.76
2023-05-01T00:19:42.223Z,6.66
2023-05-01T00:21:04.167Z,6.55
2023-05-01T00:22:39.943Z,6.45
2023-05-01T00:24:13.448Z,6.33
2023-05-01T00:25:34.984Z,6.23
2023-05-01T00:26:56.651Z,6.15
2023-05-01T00:28:25.450Z,6.08
2023-05-01T00:29:47.409Z,6.01
2023-05-01T00:31:11.462Z,5.96
2023-05-01T00:32:47.667Z,5.90
2023-05-01T00:34:11.683Z,5.84
2023-05-01T00:35:35.668Z,5.81
2023-05-01T00:36:59.633Z,6.30
2023-05-01T00:38:21.443Z,7.47
2023-05-01T00:39:45.632Z,8.71
2023-05-01T00:41:09.345Z,9.39
2023-05-01T00:42:33.594Z,9.24
2023-05-01T00:43:55.582Z,8.82
2023-05-01T00:45:19.294Z,8.39
2023-05-01T00:46:42.655Z,7.99
2023-05-01T00:48:05.353Z,7.67
2023-05-01T00:49:27.083Z,7.42
2023-05-01T00:50:48.918Z,7.21
2023-05-01T00:52:10.709Z,7.02
2023-05-01T00:53:32.439Z,6.86
2023-05-01T00:54:54.041Z,6.70
2023-05-01T00:56:18.205Z,6.56
2023-05-01T00:57:51.844Z,6.42
2023-05-01T00:59:13.685Z,6.31
2023-05-01T01:00:35.438Z,6.20
2023-05-01T01:01:59.524Z,6.10
2023-05-01T01:03:21.400Z,6.00
2023-05-01T01:04:43.894Z,6.23
2023-05-01T01:06:05.704Z,7.19
2023-05-01T01:07:27.177Z,8.42
2023-05-01T01:08:49.118Z,9.33
2023-05-01T01:10:11.068Z,9.36
2023-05-01T01:11:32.619Z,8.96
2023-05-01T01:12:54.261Z,8.49
2023-05-01T01:14:17.048Z,8.06
2023-05-01T01:15:38.900Z,7.69
2023-05-01T01:17:01.096Z,7.39
2023-05-01T01:18:22.256Z,7.14
2023-05-01T01:19:44.341Z,6.93
2023-05-01T01:21:06.883Z,6.75
2023-05-01T01:22:28.816Z,6.60
2023-05-01T01:23:50.682Z,6.44
2023-05-01T01:25:12.678Z,6.31
2023-05-01T01:26:34.496Z,6.18
2023-05-01T01:27:56.765Z,6.05
2023-05-01T01:29:18.514Z,6.04
2023-05-01T01:30:40.762Z,6.73
2023-05-01T01:32:02.690Z,7.88
2023-05-01T01:33:24.318Z,9.00
2023-05-01T01:34:48.673Z,9.36
2023-05-01T01:36:10.688Z,9.05
2023-05-01T01:37:39.594Z,8.56
2023-05-01T01:39:01.444Z,8.04
2023-05-01T01:40:23.176Z,7.64
2023-05-01T01:41:45.336Z,7.30
2023-05-01T01:43:07.035Z,7.02
2023-05-01T01:44:32.575Z,6.78
2023-05-01T01:45:54.187Z,6.56
2023-05-01T01:47:15.885Z,6.38
2023-05-01T01:48:37.787Z,6.20
2023-05-01T01:49:59.718Z,6.10
2023-05-01T01:51:21.961Z,6.63
2023-05-01T01:52:43.963Z,7.76
2023-05-01T01:54:06.094Z,8.93
2023-05-01T01:55:32.929Z,9.44
2023-05-01T01:56:54.640Z,9.16
2023-05-01T01:58:16.895Z,8.66
2023-05-01T01:59:39.741Z,8.13
2023-05-01T02:01:01.706Z,7.69
2023-05-01T02:02:23.434Z,7.32
2023-05-01T02:03:45.735Z,7.01
2023-05-01T02:05:07.599Z,6.75
2023-05-01T02:06:34.303Z,6.52
2023-05-01T02:07:56.180Z,6.32
2023-05-01T02:09:17.958Z,6.13
2023-05-01T02:10:39.649Z,5.98
2023-05-01T02:12:01.700Z,6.32
2023-05-01T02:13:24.660Z,7.33
2023-05-01T02:14:51.310Z,8.56
2023-05-01T02:16:13.370Z,9.31
2023-05-01T02:17:35.167Z,9.20
2023-05-01T02:18:57.108Z,8.73
2023-05-01T02:20:21.288Z,8.24
2023-05-01T02:21:45.933Z,7.79
2023-05-01T02:23:07.909Z,7.42
2023-05-01T02:24:29.365Z,7.13
2023-05-01T02:25:53.563Z,6.88
2023-05-01T02:27:15.596Z,6.64
2023-05-01T02:28:37.397Z,6.44
2023-05-01T02:31:20.915Z,6.08
2023-05-01T02:32:44.197Z,6.40
2023-05-01T02:34:06.146Z,7.40
2023-05-01T02:35:30.189Z,8.62
2023-05-01T02:36:52.101Z,9.42
2023-05-01T02:38:15.048Z,9.36
2023-05-01T02:39:36.920Z,8.91
2023-05-01T02:40:59.047Z,8.40
2023-05-01T02:42:20.359Z,7.95
2023-05-01T02:43:42.292Z,7.56
2023-05-01T02:45:06.492Z,7.26
2023-05-01T02:46:28.193Z,6.97
2023-05-01T02:47:50.499Z,6.73
2023-05-01T02:49:12.207Z,6.50
2023-05-01T02:50:33.966Z,6.29
2023-05-01T02:51:55.924Z,6.14
2023-05-01T02:53:18.001Z,6.61
2023-05-01T02:54:44.811Z,7.70
2023-05-01T02:56:07.913Z,8.88
2023-05-01T02:57:29.478Z,9.44
2023-05-01T02:58:54.566Z,9.20
2023-05-01T03:00:16.752Z,8.65
2023-05-01T03:01:39.791Z,8.12
2023-05-01T03:03:01.627Z,7.66
2023-05-01T03:04:23.355Z,7.29
2023-05-01T03:05:45.657Z,6.98
2023-05-01T03:07:08.233Z,6.71
2023-05-01T03:08:33.042Z,6.47
2023-05-01T03:09:55.502Z,6.25
2023-05-01T03:11:17.844Z,6.10
2023-05-01T03:12:41.743Z,6.50
2023-05-01T03:14:03.757Z,7.57
2023-05-01T03:15:25.528Z,8.73
2023-05-01T03:16:51.813Z,9.40
2023-05-01T03:18:13.706Z,9.22
2023-05-01T03:19:42.660Z,8.72
2023-05-01T03:21:04.762Z,8.15
2023-05-01T03:22:26.529Z,7.69
2023-05-01T03:23:51.174Z,7.30
2023-05-01T03:25:15.849Z,6.98
2023-05-01T03:26:37.813Z,6.72
2023-05-01T03:27:59.833Z,6.48
2023-05-01T03:29:21.446Z,6.27
2023-05-01T03:30:43.330Z,6.27
2023-05-01T03:32:05.522Z,7.02
2023-05-01T03:33:31.756Z,8.19
2023-05-01T03:34:56.006Z,9.28
2023-05-01T03:36:24.848Z,9.59
2023-05-01T03:37:47.337Z,9.18
2023-05-01T03:39:14.862Z,8.60
2023-05-01T03:40:57.904Z,7.99
2023-05-01T03:42:38.278Z,7.49
2023-05-01T03:44:07.119Z,7.15
2023-05-01T03:45:44.726Z,6.87
2023-05-01T03:47:07.170Z,6.61
2023-05-01T03:48:32.667Z,6.41
2023-05-01T03:49:58.879Z,6.27
2023-05-01T03:51:20.900Z,6.82
2023-05-01T03:52:43.272Z,7.92
2023-05-01T03:54:05.328Z,9.05
2023-05-01T03:55:34.834Z,9.61
2023-05-01T03:56:58.723Z,9.33
2023-05-01T03:58:23.123Z,8.82
2023-05-01T03:59:45.351Z,8.32
2023-05-01T04:01:07.304Z,7.89
2023-05-01T04:02:29.766Z,7.54
2023-05-01T04:03:52.194Z,7.25
2023-05-01T04:05:14.559Z,7.00
2023-05-01T04:06:39.193Z,6.79
2023-05-01T04:08:01.240Z,6.60
2023-05-01T04:09:22.727Z,6.45
2023-05-01T04:10:44.886Z,6.76
2023-05-01T04:12:06.819Z,7.75
2023-05-01T04:13:28.567Z,8.92
2023-05-01T04:14:58.788Z,9.76
2023-05-01T04:16:20.584Z,9.65
2023-05-01T04:17:50.008Z,9.16
2023-05-01T04:19:14.385Z,8.67
2023-05-01T04:20:37.648Z,8.23
2023-05-01T04:22:01.864Z,7.89
2023-05-01T04:23:24.898Z,7.60
2023-05-01T04:24:47.355Z,7.37
2023-05-01T04:26:09.274Z,7.18
2023-05-01T04:27:30.827Z,7.00
2023-05-01T04:28:52.975Z,6.85
2023-05-01T04:30:17.143Z,6.72
2023-05-01T04:31:46.930Z,6.60
2023-05-01T04:33:11.757Z,7.00
2023-05-01T04:34:33.837Z,8.12
2023-05-01T04:35:58.800Z,9.35
2023-05-01T04:37:23.014Z,10.02
2023-05-01T04:38:45.139Z,9.87
2023-05-01T04:40:09.180Z,9.44
2023-05-01T04:41:34.978Z,8.99
2023-05-01T04:42:59.248Z,8.58
2023-05-01T04:44:20.735Z,8.25
2023-05-01T04:45:42.945Z,7.98
2023-05-01T04:47:06.245Z,7.76
2023-05-01T04:48:28.044Z,7.58
2023-05-01T04:49:49.542Z,7.42
2023-05-01T04:51:15.802Z,7.27
2023-05-01T04:52:37.662Z,7.13
2023-05-01T04:53:59.393Z,7.03
2023-05-01T04:55:23.716Z,6.92
2023-05-01T04:57:19.296Z,6.80
2023-05-01T04:58:44.380Z,6.72
2023-05-01T05:00:08.697Z,6.85
2023-05-01T05:01:49.971Z,7.84
2023-05-01T05:03:11.879Z,9.27
2023-05-01T05:04:33.854Z,10.11
2023-05-01T05:06:03.344Z,10.11
2023-05-01T05:07:24.838Z,9.72
2023-05-01T05:09:09.272Z,9.22
2023-05-01T05:10:31.029Z,8.87
2023-05-01T05:12:14.769Z,8.54
2023-05-01T05:13:36.637Z,8.31
2023-05-01T05:15:06.522Z,8.13
2023-05-01T05:16:35.731Z,7.99
2023-05-01T05:17:57.500Z,7.88
2023-05-01T05:19:38.196Z,7.78
2023-05-01T05:20:59.749Z,7.69
2023-05-01T05:22:25.949Z,7.63
2023-05-01T05:24:21.181Z,7.56
2023-05-01T05:25:43.265Z,7.50
2023-05-01T05:27:07.212Z,7.47
2023-05-01T05:28:28.996Z,7.45
2023-05-01T05:30:01.144Z,7.44
2023-05-01T05:31:30.649Z,7.42
2023-05-01T05:32:52.750Z,7.42
2023-05-01T05:34:15.268Z,7.41
2023-05-01T05:35:39.270Z,7.40
2023-05-01T05:37:03.277Z,7.40
2023-05-01T05:38:27.954Z,7.39
2023-05-01T05:39:51.769Z,7.40
2023-05-01T05:41:15.819Z,7.41
2023-05-01T05:42:37.725Z,7.41
2023-05-01T05:44:03.288Z,7.43
2023-05-01T05:45:25.971Z,7.44
2023-05-01T05:46:47.888Z,7.45
2023-05-01T05:48:19.940Z,7.51
2023-05-01T05:49:47.094Z,8.24
2023-05-01T05:51:11.400Z,9.51
2023-05-01T05:52:45.223Z,10.87
2023-05-01T05:54:07.710Z,11.21
2023-05-01T05:55:45.879Z,10.98
2023-05-01T05:57:07.560Z,10.62
2023-05-01T05:58:42.288Z,10.32
2023-05-01T06:00:10.067Z,10.04
2023-05-01T06:01:49.734Z,9.84
2023-05-01T06:03:19.471Z,9.67
2023-05-01T06:04:41.995Z,9.57
2023-05-01T06:06:03.971Z,9.50
2023-05-01T06:07:26.166Z,9.44
2023-05-01T06:08:48.241Z,9.40
2023-05-01T06:10:10.345Z,9.38
2023-05-01T06:11:31.839Z,9.36
2023-05-01T06:13:02.603Z,9.34
2023-05-01T06:14:45.930Z,9.32
2023-05-01T06:16:07.885Z,9.31
2023-05-01T06:17:29.127Z,9.32
2023-05-01T06:18:53.141Z,9.34
2023-05-01T06:20:24.294Z,9.36
2023-05-01T06:21:49.647Z,9.39
2023-05-01T06:23:13.574Z,9.43
2023-05-01T06:24:40.173Z,9.46
2023-05-01T06:26:03.324Z,9.50
2023-05-01T06:27:27.181Z,9.54
2023-05-01T06:29:03.513Z,9.57
2023-05-01T06:30:27.964Z,9.61
2023-05-01T06:31:55.597Z,9.64
2023-05-01T06:33:22.521Z,9.69
2023-05-01T06:34:54.021Z,9.74
2023-05-01T06:36:29.285Z,9.79
2023-05-01T06:37:55.922Z,9.84
2023-05-01T06:39:22.311Z,9.88
2023-05-01T06:40:58.805Z,9.92
2023-05-01T06:42:22.947Z,9.97
2023-05-01T06:43:45.069Z,10.02
2023-05-01T06:45:08.479Z,10.07
2023-05-01T06:46:41.794Z,10.13
2023-05-01T06:48:04.130Z,10.19
2023-05-01T06:49:27.697Z,10.25
2023-05-01T06:50:51.634Z,10.32
2023-05-01T06:52:13.867Z,10.38
2023-05-01T06:53:36.888Z,10.44
2023-05-01T06:55:19.609Z,10.50
2023-05-01T06:56:41.509Z,10.57
2023-05-01T06:58:12.640Z,10.64
2023-05-01T06:59:44.706Z,10.70
2023-05-01T07:01:06.498Z,10.75
2023-05-01T07:02:27.988Z,10.82
2023-05-01T07:03:50.083Z,10.89
2023-05-01T07:05:11.694Z,10.95
2023-05-01T07:06:41.003Z,11.02
2023-05-01T07:08:05.304Z,11.08
2023-05-01T07:09:28.902Z,11.15
2023-05-01T07:11:02.820Z,11.23
2023-05-01T07:12:24.416Z,11.29
2023-05-01T07:13:46.203Z,11.36
2023-05-01T07:15:10.038Z,11.42
2023-05-01T07:16:32.439Z,11.49
2023-05-01T07:18:05.992Z,11.56
2023-05-01T07:19:39.503Z,11.62
2023-05-01T07:21:12.941Z,11.67
2023-05-01T07:22:48.541Z,11.73
2023-05-01T07:24:10.344Z,11.77
2023-05-01T07:25:46.188Z,11.81
2023-05-01T07:27:36.486Z,11.87
2023-05-01T07:29:17.598Z,11.94
2023-05-01T07:31:03.551Z,12.01
2023-05-01T07:32:48.424Z,12.09
2023-05-01T07:34:21.901Z,12.17
2023-05-01T07:35:43.621Z,12.24
2023-05-01T07:37:28.832Z,12.32
2023-05-01T07:39:03.422Z,12.39
2023-05-01T07:40:52.225Z,12.44
2023-05-01T07:42:26.193Z,12.51
2023-05-01T07:43:59.885Z,12.59
2023-05-01T07:45:44.879Z,12.65
2023-05-01T07:47:08.975Z,12.71
2023-05-01T07:48:43.664Z,12.75
2023-05-01T07:50:28.815Z,12.80
2023-05-01T07:52:04.412Z,12.84
2023-05-01T07:53:35.138Z,12.87
2023-05-01T07:55:15.930Z,12.90
2023-05-01T07:56:37.855Z,12.93
2023-05-01T07:58:06.985Z,12.97
2023-05-01T07:59:28.768Z,13.01
2023-05-01T08:00:53.158Z,13.04
2023-05-01T08:02:14.983Z,13.06
2023-05-01T08:03:37.175Z,13.09
2023-05-01T08:05:14.513Z,13.11
2023-05-01T08:06:36.219Z,13.11
2023-05-01T08:07:58.338Z,13.11
2023-05-01T08:09:27.177Z,13.13
2023-05-01T08:10:49.323Z,13.14
2023-05-01T08:12:11.231Z,13.16
2023-05-01T08:13:35.250Z,13.17
2023-05-01T08:14:57.164Z,13.19
2023-05-01T08:16:21.907Z,13.22
2023-05-01T08:17:51.410Z,13.23
2023-05-01T08:19:13.042Z,13.26
2023-05-01T08:20:34.636Z,13.29
2023-05-01T08:23:55.032Z,13.35
2023-05-01T08:25:24.621Z,13.38
2023-05-01T08:26:46.772Z,13.42
2023-05-01T08:28:10.614Z,13.46
2023-05-01T08:29:34.710Z,13.49
2023-05-01T08:30:58.936Z,13.54
2023-05-01T08:32:25.210Z,13.58
2023-05-01T08:33:47.264Z,13.62
2023-05-01T08:35:09.759Z,13.65
2023-05-01T08:36:32.701Z,13.65
2023-05-01T08:37:54.646Z,13.66
2023-05-01T08:39:16.141Z,13.67
2023-05-01T08:40:40.941Z,13.71
2023-05-01T08:42:02.761Z,13.77
2023-05-01T08:43:27.337Z,13.83
2023-05-01T08:44:51.704Z,13.88
2023-05-01T08:46:16.174Z,13.92
2023-05-01T08:47:40.926Z,13.94
2023-05-01T08:49:05.796Z,13.97
2023-05-01T08:50:27.488Z,14.01
2023-05-01T08:51:50.100Z,14.04
2023-05-01T08:53:43.072Z,14.08
2023-05-01T08:55:07.894Z,14.15
2023-05-01T08:56:29.517Z,14.21
2023-05-01T08:57:51.391Z,14.27
2023-05-01T08:59:15.788Z,14.31
2023-05-01T09:00:49.535Z,14.36
2023-05-01T09:02:14.273Z,14.42
2023-05-01T09:03:37.869Z,14.49
2023-05-01T09:05:01.879Z,14.56
2023-05-01T09:06:47.312Z,14.63
2023-05-01T09:08:18.858Z,14.71
2023-05-01T09:09:42.971Z,14.78
2023-05-01T09:11:16.502Z,14.85
2023-05-01T09:12:41.061Z,14.92
2023-05-01T09:14:17.630Z,14.98
2023-05-01T09:15:46.663Z,15.03
2023-05-01T09:17:10.465Z,15.04
2023-05-01T09:18:32.298Z,15.06
2023-05-01T09:20:01.321Z,15.09
2023-05-01T09:21:25.607Z,15.07
2023-05-01T09:23:04.157Z,15.05
2023-05-01T09:24:35.495Z,15.02
2023-05-01T09:26:04.606Z,14.99
2023-05-01T09:27:28.380Z,14.98
2023-05-01T09:28:59.889Z,14.97
2023-05-01T09:30:28.657Z,14.98
2023-05-01T09:31:58.079Z,15.03
2023-05-01T09:33:24.515Z,15.08
2023-05-01T09:34:49.080Z,15.11
2023-05-01T09:36:11.010Z,15.13
2023-05-01T09:37:32.752Z,15.16
2023-05-01T09:38:54.219Z,15.19
2023-05-01T09:40:17.869Z,15.23
2023-05-01T09:41:41.905Z,15.27
2023-05-01T09:43:15.571Z,15.33
2023-05-01T09:44:48.967Z,15.40
2023-05-01T09:46:13.257Z,15.49
2023-05-01T09:47:37.053Z,15.57
2023-05-01T09:49:06.087Z,15.67
2023-05-01T09:50:30.083Z,15.76
2023-05-01T09:51:52.497Z,15.85
2023-05-01T09:53:21.430Z,15.94
2023-05-01T09:54:55.077Z,16.03
2023-05-01T09:56:18.034Z,16.13
2023-05-01T09:57:39.673Z,16.20
2023-05-01T09:59:12.717Z,16.29
2023-05-01T10:00:34.317Z,16.37
2023-05-01T10:02:05.903Z,16.47
2023-05-01T10:03:39.779Z,16.57
2023-05-01T10:05:13.858Z,16.66
2023-05-01T10:06:47.829Z,16.71
2023-05-01T10:08:14.758Z,16.76
2023-05-01T10:09:50.553Z,16.81
2023-05-01T10:11:20.156Z,16.87
2023-05-01T10:12:44.069Z,16.92
2023-05-01T10:14:18.480Z,16.97
2023-05-01T10:15:55.936Z,17.02
2023-05-01T10:17:22.690Z,17.08
2023-05-01T10:18:58.214Z,17.14
2023-05-01T10:20:22.436Z,17.19
2023-05-01T10:21:56.053Z,17.25
2023-05-01T10:23:17.568Z,17.31
2023-05-01T10:24:52.097Z,17.36
2023-05-01T10:26:29.101Z,17.44
2023-05-01T10:27:51.199Z,17.50
2023-05-01T10:29:13.422Z,17.55
2023-05-01T10:30:37.939Z,17.60
2023-05-01T10:32:11.856Z,17.64
2023-05-01T10:33:57.034Z,17.70
2023-05-01T10:35:42.088Z,17.76
2023-05-01T10:37:17.389Z,17.82
2023-05-01T10:38:48.607Z,17.88
2023-05-01T10:40:12.458Z,17.93
2023-05-01T10:41:45.962Z,17.99
2023-05-01T10:43:27.575Z,18.09
2023-05-01T10:44:57.497Z,18.19
2023-05-01T10:46:21.757Z,18.27
2023-05-01T10:47:59.406Z,18.37
2023-05-01T10:49:41.084Z,18.49
2023-05-01T10:51:27.784Z,18.64
2023-05-01T10:53:01.971Z,18.75
2023-05-01T10:54:26.643Z,18.82
2023-05-01T10:55:50.930Z,18.89
2023-05-01T10:57:15.237Z,18.94
2023-05-01T10:58:56.477Z,19.02
2023-05-01T11:00:41.058Z,19.14
2023-05-01T11:02:14.373Z,19.25
2023-05-01T11:03:57.091Z,19.37
2023-05-01T11:05:32.175Z,19.48
2023-05-01T11:07:04.194Z,19.61
2023-05-01T11:08:47.445Z,19.75
2023-05-01T11:10:23.176Z,19.88
2023-05-01T11:11:56.557Z,19.99
2023-05-01T11:13:31.911Z,20.08
2023-05-01T11:15:05.807Z,20.18
2023-05-01T11:16:38.953Z,20.27
2023-05-01T11:18:12.182Z,20.36
2023-05-01T11:19:41.357Z,20.44
2023-05-01T11:21:35.092Z,20.55
2023-05-01T11:23:10.308Z,20.67
2023-05-01T11:24:55.678Z,20.76
2023-05-01T11:26:31.214Z,20.83
2023-05-01T11:28:06.843Z,20.89
2023-05-01T11:29:36.011Z,20.97
2023-05-01T11:31:11.599Z,21.04
2023-05-01T11:32:47.731Z,21.13
2023-05-01T11:34:14.099Z,21.18
2023-05-01T11:35:38.017Z,21.21
2023-05-01T11:37:11.607Z,21.25
2023-05-01T11:38:46.988Z,21.28
2023-05-01T11:40:20.173Z,21.34
2023-05-01T11:42:05.355Z,21.45
2023-05-01T11:43:41.312Z,21.56
2023-05-01T11:45:26.248Z,21.66
2023-05-01T11:47:01.179Z,21.76
2023-05-01T11:48:22.979Z,21.84
2023-05-01T11:49:57.627Z,21.94
2023-05-01T11:51:37.820Z,22.10
2023-05-01T11:53:23.450Z,22.26
2023-05-01T11:55:08.537Z,22.42
2023-05-01T11:56:45.556Z,22.56
2023-05-01T11:58:14.797Z,22.71
2023-05-01T11:59:48.278Z,22.83
2023-05-01T12:01:21.516Z,22.90
2023-05-01T12:02:55.681Z,22.99
2023-05-01T12:04:32.285Z,23.04
2023-05-01T12:06:18.653Z,23.08
2023-05-01T12:07:59.808Z,23.09
2023-05-01T12:09:21.433Z,23.12
2023-05-01T12:10:57.322Z,23.17
2023-05-01T12:12:19.101Z,23.20
2023-05-01T12:13:58.660Z,23.22
2023-05-01T12:15:32.239Z,23.25
2023-05-01T12:17:17.426Z,23.32
2023-05-01T12:19:02.673Z,23.38
2023-05-01T12:20:36.624Z,23.48
2023-05-01T12:22:17.131Z,23.56
2023-05-01T12:23:58.248Z,23.65
2023-05-01T12:25:33.963Z,23.77
2023-05-01T12:26:55.806Z,23.85
2023-05-01T12:28:20.356Z,23.93
2023-05-01T12:29:54.506Z,24.03
2023-05-01T12:31:16.519Z,24.14
2023-05-01T12:32:57.170Z,24.23
2023-05-01T12:34:21.188Z,24.31
2023-05-01T12:35:50.440Z,24.40
2023-05-01T12:37:14.837Z,24.46
2023-05-01T12:39:00.314Z,24.52
2023-05-01T12:40:36.284Z,24.56
2023-05-01T12:42:00.818Z,24.59
2023-05-01T12:43:25.216Z,24.64
2023-05-01T12:45:00.578Z,24.72
2023-05-01T12:46:31.978Z,24.77
2023-05-01T12:47:56.014Z,24.86
2023-05-01T12:49:20.297Z,24.97
2023-05-01T12:50:53.878Z,25.09
2023-05-01T12:52:28.145Z,25.18
2023-05-01T12:53:57.157Z,25.26
2023-05-01T12:55:30.646Z,25.33
2023-05-01T12:56:58.257Z,25.43
2023-05-01T12:58:22.456Z,25.52
2023-05-01T12:59:54.498Z,25.61
2023-05-01T13:01:18.565Z,25.72
2023-05-01T13:02:55.168Z,25.82
2023-05-01T13:04:28.962Z,25.96
2023-05-01T13:05:58.456Z,26.12
2023-05-01T13:07:22.495Z,26.27
2023-05-01T13:08:44.522Z,26.41
2023-05-01T13:10:35.161Z,26.53
2023-05-01T13:12:05.652Z,26.68
2023-05-01T13:13:35.154Z,26.81
2023-05-01T13:15:04.297Z,26.93
2023-05-01T13:16:49.834Z,27.07
2023-05-01T13:18:11.559Z,27.14
2023-05-01T13:19:40.711Z,27.19
2023-05-01T13:21:27.316Z,27.25
2023-05-01T13:23:02.648Z,27.35
2023-05-01T13:24:36.169Z,27.38
2023-05-01T13:26:30.251Z,27.39
2023-05-01T13:27:52.411Z,27.35
2023-05-01T13:29:23.551Z,27.31
2023-05-01T13:30:57.149Z,27.28
2023-05-01T13:32:21.387Z,27.30
2023-05-01T13:33:54.903Z,27.35
2023-05-01T13:35:39.722Z,27.42
2023-05-01T13:37:11.604Z,27.50
2023-05-01T13:38:37.861Z,27.55
2023-05-01T13:40:11.370Z,27.58
2023-05-01T13:41:40.664Z,27.56
2023-05-01T13:43:17.137Z,27.53
2023-05-01T13:44:58.084Z,27.55
2023-05-01T13:46:22.259Z,27.64
2023-05-01T13:48:06.024Z,27.75
2023-05-01T13:49:39.443Z,27.85
2023-05-01T13:51:20.579Z,27.94
2023-05-01T13:52:43.488Z,28.03
2023-05-01T13:54:16.903Z,28.11
2023-05-01T13:55:50.619Z,28.17
2023-05-01T13:57:15.621Z,28.21
2023-05-01T13:58:39.337Z,28.23
2023-05-01T14:00:05.792Z,28.19
2023-05-01T14:01:46.163Z,28.15
2023-05-01T14:03:10.499Z,28.11
2023-05-01T14:04:34.753Z,28.12
2023-05-01T14:06:06.419Z,28.11
2023-05-01T14:07:53.123Z,28.14
2023-05-01T14:09:17.282Z,28.18
2023-05-01T14:11:00.140Z,28.25
2023-05-01T14:12:31.500Z,28.37
2023-05-01T14:14:05.181Z,28.48
2023-05-01T14:15:55.322Z,28.54
2023-05-01T14:17:28.895Z,28.62
2023-05-01T14:19:09.538Z,28.71
2023-05-01T14:20:43.250Z,28.81
2023-05-01T14:22:28.173Z,28.90
2023-05-01T14:24:01.747Z,28.96
2023-05-01T14:25:35.299Z,28.99
2023-05-01T14:27:01.778Z,28.95
2023-05-01T14:28:31.376Z,28.91
2023-05-01T14:30:04.918Z,28.88
2023-05-01T14:31:27.559Z,28.89
2023-05-01T14:32:54.297Z,28.93
2023-05-01T14:34:16.037Z,28.97
2023-05-01T14:35:38.021Z,28.99
2023-05-01T14:36:59.831Z,28.99
2023-05-01T14:38:21.633Z,28.93
2023-05-01T14:39:43.310Z,28.88
2023-05-01T14:41:04.785Z,28.87
2023-05-01T14:42:26.766Z,28.86
2023-05-01T14:43:51.106Z,28.86
2023-05-01T14:45:13.163Z,28.88
2023-05-01T14:46:47.265Z,28.91
2023-05-01T14:48:20.739Z,28.93
2023-05-01T14:49:56.909Z,28.94
2023-05-01T14:51:32.795Z,28.99
2023-05-01T14:53:02.056Z,29.05
2023-05-01T14:54:46.877Z,29.09
2023-05-01T14:56:08.243Z,29.14
2023-05-01T14:57:37.431Z,29.18
2023-05-01T14:59:22.749Z,29.13
2023-05-01T15:00:49.405Z,29.02
2023-05-01T15:02:23.632Z,28.85
2023-05-01T15:04:09.188Z,28.72
2023-05-01T15:05:54.258Z,28.64
2023-05-01T15:07:16.613Z,28.62
2023-05-01T15:08:45.690Z,28.62
2023-05-01T15:10:16.877Z,28.64
2023-05-01T15:11:50.560Z,28.68
2023-05-01T15:13:24.212Z,28.72
2023-05-01T15:14:58.009Z,28.79
2023-05-01T15:16:38.881Z,28.88
2023-05-01T15:18:10.089Z,28.94
2023-05-01T15:19:31.800Z,28.98
2023-05-01T15:21:05.537Z,29.00
2023-05-01T15:22:27.105Z,28.98
2023-05-01T15:23:51.310Z,28.97
2023-05-01T15:25:24.960Z,28.98
2023-05-01T15:26:58.443Z,29.01
2023-05-01T15:28:24.669Z,29.05
2023-05-01T15:30:10.424Z,29.09
2023-05-01T15:32:11.275Z,29.14
2023-05-01T15:33:40.894Z,29.25
2023-05-01T15:35:10.448Z,29.36
2023-05-01T15:36:54.617Z,29.44
2023-05-01T15:38:18.349Z,29.45
2023-05-01T15:39:42.157Z,29.40
2023-05-01T15:41:17.561Z,29.32
2023-05-01T15:42:54.497Z,29.16
2023-05-01T15:44:18.888Z,29.07
2023-05-01T15:46:05.759Z,28.98
2023-05-01T15:47:41.667Z,28.92
2023-05-01T15:49:03.737Z,28.83
2023-05-01T15:50:32.532Z,28.74
2023-05-01T15:52:01.415Z,28.65
2023-05-01T15:53:25.565Z,28.55
2023-05-01T15:54:59.070Z,28.44
2023-05-01T15:56:23.167Z,28.35
2023-05-01T15:57:57.164Z,28.27
2023-05-01T15:59:32.266Z,28.16
2023-05-01T16:01:06.046Z,28.03
2023-05-01T16:02:50.971Z,27.89
2023-05-01T16:04:17.369Z,27.72
2023-05-01T16:05:53.065Z,27.52
2023-05-01T16:07:27.769Z,27.24
2023-05-01T16:08:51.864Z,27.02
2023-05-01T16:10:32.556Z,26.78
2023-05-01T16:12:06.037Z,26.45
2023-05-01T16:13:39.877Z,26.10
2023-05-01T16:15:04.067Z,25.85
2023-05-01T16:16:25.520Z,25.61
2023-05-01T16:17:55.244Z,25.40
2023-05-01T16:19:19.109Z,25.17
2023-05-01T16:20:41.114Z,24.93
2023-05-01T16:22:03.059Z,24.67
2023-05-01T16:23:37.002Z,24.38
2023-05-01T16:25:06.592Z,24.13
2023-05-01T16:26:30.925Z,23.85
2023-05-01T16:28:12.442Z,23.56
2023-05-01T16:29:46.107Z,23.27
2023-05-01T16:31:27.088Z,23.03
2023-05-01T16:32:49.488Z,22.73
2023-05-01T16:34:11.572Z,22.50
2023-05-01T16:35:36.785Z,22.26
2023-05-01T16:36:58.135Z,22.04
2023-05-01T16:38:39.949Z,21.81
2023-05-01T16:40:01.954Z,21.57
2023-05-01T16:41:36.626Z,21.36
2023-05-01T16:43:02.805Z,21.12
2023-05-01T16:44:53.182Z,20.90
2023-05-01T16:46:25.047Z,20.65
2023-05-01T16:47:58.726Z,20.41
2023-05-01T16:49:22.492Z,20.21
2023-05-01T16:50:44.543Z,20.01
2023-05-01T16:52:10.530Z,19.83
2023-05-01T16:53:32.489Z,19.66
2023-05-01T16:55:02.081Z,19.49
2023-05-01T16:56:24.049Z,19.32
2023-05-01T16:57:46.099Z,19.17
2023-05-01T16:59:07.692Z,19.05
2023-05-01T17:00:29.352Z,18.93
2023-05-01T17:01:53.537Z,18.81
2023-05-01T17:03:16.112Z,18.69
2023-05-01T17:04:37.757Z,18.58
2023-05-01T17:06:03.748Z,18.45
2023-05-01T17:07:37.117Z,18.31
2023-05-01T17:09:03.393Z,18.19
2023-05-01T17:10:38.860Z,18.06
2023-05-01T17:12:07.985Z,17.94
2023-05-01T17:13:43.923Z,17.81
2023-05-01T17:15:19.509Z,17.66
2023-05-01T17:16:53.408Z,17.54
2023-05-01T17:18:26.710Z,17.41
2023-05-01T17:20:00.697Z,17.31
2023-05-01T17:21:24.633Z,17.18
2023-05-01T17:22:48.714Z,17.07
2023-05-01T17:24:12.901Z,16.97
2023-05-01T17:25:44.675Z,16.86
2023-05-01T17:27:08.724Z,16.77
2023-05-01T17:28:30.322Z,16.68
2023-05-01T17:29:52.481Z,16.60
2023-05-01T17:31:25.871Z,16.52
2023-05-01T17:32:48.415Z,16.43
2023-05-01T17:34:21.694Z,16.35
2023-05-01T17:35:50.972Z,16.25
2023-05-01T17:37:15.363Z,16.17
2023-05-01T17:38:37.509Z,16.09
2023-05-01T17:40:03.934Z,16.02
2023-05-01T17:41:47.190Z,15.95
2023-05-01T17:43:11.034Z,15.86
2023-05-01T17:44:33.619Z,15.79
2023-05-01T17:45:57.865Z,15.72
2023-05-01T17:47:19.862Z,15.65
2023-05-01T17:48:42.156Z,15.59
2023-05-01T17:50:09.498Z,15.53
2023-05-01T17:51:54.548Z,15.45
2023-05-01T17:53:16.437Z,15.39
2023-05-01T17:54:58.351Z,15.33
2023-05-01T17:56:22.561Z,15.25
2023-05-01T17:57:49.370Z,15.20
2023-05-01T17:59:13.670Z,15.14
2023-05-01T18:00:59.113Z,15.08
2023-05-01T18:02:32.553Z,15.01
2023-05-01T18:03:56.970Z,14.94
2023-05-01T18:05:18.774Z,14.88
2023-05-01T18:06:43.382Z,14.82
2023-05-01T18:08:12.973Z,14.76
2023-05-01T18:09:35.383Z,14.70
2023-05-01T18:10:57.339Z,14.66
2023-05-01T18:12:32.964Z,14.60
2023-05-01T18:13:55.112Z,14.53
2023-05-01T18:15:28.388Z,14.47
2023-05-01T18:17:01.912Z,14.41
2023-05-01T18:18:23.690Z,14.36
2023-05-01T18:19:45.668Z,14.30
2023-05-01T18:21:07.183Z,14.26
2023-05-01T18:22:29.153Z,14.22
2023-05-01T18:23:51.537Z,14.19
2023-05-01T18:25:20.762Z,14.13
2023-05-01T18:26:42.352Z,14.10
2023-05-01T18:28:18.226Z,14.06
2023-05-01T18:29:40.304Z,14.03
2023-05-01T18:31:01.818Z,13.99
2023-05-01T18:32:32.994Z,13.96
2023-05-01T18:34:20.675Z,13.92
2023-05-01T18:35:42.516Z,13.88
2023-05-01T18:37:15.731Z,13.86
2023-05-01T18:38:37.275Z,13.81
2023-05-01T18:39:59.200Z,13.77
2023-05-01T18:41:23.666Z,13.73
2023-05-01T18:42:45.723Z,13.69
2023-05-01T18:44:07.548Z,13.64
2023-05-01T18:45:31.757Z,13.59
2023-05-01T18:47:01.234Z,13.55
2023-05-01T18:48:32.801Z,13.50
2023-05-01T18:49:58.151Z,13.45
2023-05-01T18:51:22.241Z,13.40
2023-05-01T18:52:55.647Z,13.36
2023-05-01T18:54:17.695Z,13.31
2023-05-01T18:55:42.080Z,13.28
2023-05-01T18:57:04.089Z,13.25
2023-05-01T18:58:30.096Z,13.21
2023-05-01T19:00:03.674Z,13.17
2023-05-01T19:01:27.438Z,13.15
2023-05-01T19:03:01.212Z,13.11
2023-05-01T19:04:25.006Z,13.07
2023-05-01T19:05:46.896Z,13.04
2023-05-01T19:07:10.552Z,13.02
2023-05-01T19:08:32.144Z,12.98
2023-05-01T19:09:56.867Z,12.94
2023-05-01T19:11:19.219Z,12.89